createdAt,value
2023-02-06T00:01:29.999Z,59.73
2023-02-06T00:03:56.599Z,59.60
2023-02-06T00:06:27.916Z,59.80
2023-02-06T00:08:57.466Z,61.36
2023-02-06T00:11:26.768Z,61.63
2023-02-06T00:13:56.908Z,60.59
2023-02-06T00:16:29.370Z,60.21
2023-02-06T00:18:57.469Z,59.23
2023-02-06T00:21:26.167Z,60.16
2023-02-06T00:23:58.440Z,60.52
2023-02-06T00:26:25.885Z,61.77
2023-02-06T00:28:52.681Z,62.53
2023-02-06T00:31:19.360Z,63.03
2023-02-06T00:33:46.015Z,62.52
2023-02-06T00:36:14.743Z,63.38
2023-02-06T00:38:46.076Z,63.70
2023-02-06T00:41:12.737Z,64.28
2023-02-06T00:43:43.473Z,65.34
2023-02-06T00:46:14.672Z,64.23
2023-02-06T00:48:42.171Z,61.80
2023-02-06T00:51:10.986Z,62.00
2023-02-06T00:53:40.108Z,61.28
2023-02-06T00:56:09.827Z,61.53
2023-02-06T00:58:38.887Z,64.34
2023-02-06T01:01:07.658Z,65.78
2023-02-06T01:03:39.094Z,66.45
2023-02-06T01:06:09.388Z,66.16
2023-02-06T01:08:38.414Z,67.63
2023-02-06T01:11:17.375Z,66.92
2023-02-06T01:13:46.366Z,66.89
2023-02-06T01:16:16.650Z,67.55
2023-02-06T01:18:48.755Z,66.35
2023-02-06T01:21:21.569Z,66.44
2023-02-06T01:23:50.208Z,65.05
2023-02-06T01:26:18.679Z,64.12
2023-02-06T01:28:50.914Z,62.87
2023-02-06T01:31:19.252Z,62.86
2023-02-06T01:33:49.429Z,62.09
2023-02-06T01:36:19.872Z,62.58
2023-02-06T01:38:50.250Z,63.11
2023-02-06T01:41:18.610Z,61.55
2023-02-06T01:43:48.544Z,61.91
2023-02-06T01:46:15.135Z,62.65
2023-02-06T01:48:52.522Z,61.28
2023-02-06T01:51:22.984Z,61.38
2023-02-06T01:53:57.785Z,61.68
2023-02-06T01:56:27.157Z,60.31
2023-02-06T01:58:58.446Z,59.94
2023-02-06T02:01:27.605Z,59.61
2023-02-06T02:03:59.677Z,60.27
2023-02-06T02:06:27.269Z,61.26
2023-02-06T02:08:59.757Z,62.40
2023-02-06T02:11:34.172Z,61.83
2023-02-06T02:14:06.544Z,61.15
2023-02-06T02:16:35.935Z,60.25
2023-02-06T02:19:30.985Z,60.56
2023-02-06T02:22:16.548Z,59.47
2023-02-06T02:25:07.658Z,58.87
2023-02-06T02:27:46.182Z,59.47
2023-02-06T02:30:35.942Z,57.86
2023-02-06T02:33:23.838Z,57.26
2023-02-06T02:35:55.572Z,57.01
2023-02-06T02:38:33.119Z,56.56
2023-02-06T02:41:12.403Z,56.55
2023-02-06T02:43:41.171Z,56.68
2023-02-06T02:46:48.326Z,56.89
2023-02-06T02:49:21.905Z,57.57
2023-02-06T02:51:49.460Z,57.94
2023-02-06T02:54:16.295Z,59.08
2023-02-06T02:56:45.696Z,58.47
2023-02-06T02:59:29.245Z,57.83
2023-02-06T03:02:04.599Z,56.76
2023-02-06T03:04:39.396Z,57.16
2023-02-06T03:07:17.266Z,57.37
2023-02-06T03:10:01.599Z,56.84
2023-02-06T03:13:09.595Z,57.17
2023-02-06T03:15:48.463Z,57.99
2023-02-06T03:18:26.442Z,58.67
2023-02-06T03:20:55.634Z,58.98
2023-02-06T03:23:29.321Z,59.57
2023-02-06T03:26:03.056Z,58.89
2023-02-06T03:28:36.019Z,57.41
2023-02-06T03:31:12.360Z,58.31
2023-02-06T03:33:48.831Z,58.69
2023-02-06T03:36:17.196Z,59.19
2023-02-06T03:38:52.444Z,58.94
2023-02-06T03:41:25.533Z,58.56
2023-02-06T03:43:53.604Z,59.11
2023-02-06T03:46:21.130Z,59.46
2023-02-06T03:48:53.814Z,58.59
2023-02-06T03:51:31.109Z,59.02
2023-02-06T03:54:02.490Z,59.83
2023-02-06T03:56:38.261Z,59.77
2023-02-06T03:59:07.899Z,58.94
2023-02-06T04:01:42.764Z,58.74
2023-02-06T04:04:14.034Z,60.50
2023-02-06T04:06:40.651Z,60.82
2023-02-06T04:09:07.191Z,62.59
2023-02-06T04:11:33.796Z,58.95
2023-02-06T04:14:00.352Z,59.72
2023-02-06T04:16:26.958Z,57.74
2023-02-06T04:18:55.817Z,58.18
2023-02-06T04:21:25.189Z,56.90
2023-02-06T04:23:53.963Z,57.01
2023-02-06T04:26:23.024Z,56.80
2023-02-06T04:28:49.693Z,55.82
2023-02-06T04:31:18.572Z,55.34
2023-02-06T04:33:45.195Z,55.35
2023-02-06T04:36:11.873Z,55.71
2023-02-06T04:38:38.630Z,56.81
2023-02-06T04:41:08.746Z,55.49
2023-02-06T04:43:37.825Z,55.72
2023-02-06T04:46:06.618Z,56.71
2023-02-06T04:48:33.336Z,55.54
2023-02-06T04:50:59.888Z,55.75
2023-02-06T04:53:29.040Z,55.82
2023-02-06T04:56:05.489Z,56.03
2023-02-06T04:58:32.878Z,55.63
2023-02-06T05:00:59.595Z,56.59
2023-02-06T05:03:29.665Z,55.60
2023-02-06T05:05:59.428Z,56.01
2023-02-06T05:08:28.797Z,56.31
2023-02-06T05:10:57.857Z,58.31
2023-02-06T05:13:25.220Z,55.52
2023-02-06T05:15:54.230Z,55.42
2023-02-06T05:18:20.856Z,56.58
2023-02-06T05:20:47.401Z,56.15
2023-02-06T05:23:18.541Z,57.61
2023-02-06T05:25:45.100Z,57.03
2023-02-06T05:28:11.643Z,56.85
2023-02-06T05:30:40.958Z,57.78
2023-02-06T05:33:09.851Z,57.57
2023-02-06T05:35:43.477Z,57.79
2023-02-06T05:38:10.084Z,57.78
2023-02-06T05:40:36.838Z,57.61
2023-02-06T05:43:05.730Z,58.26
2023-02-06T05:45:36.052Z,58.91
2023-02-06T05:48:05.436Z,60.73
2023-02-06T05:50:36.814Z,60.55
2023-02-06T05:53:05.706Z,61.67
2023-02-06T05:55:37.273Z,63.00
2023-02-06T05:58:06.484Z,59.95
2023-02-06T06:00:33.077Z,60.45
2023-02-06T06:03:01.908Z,62.28
2023-02-06T06:05:30.721Z,59.92
2023-02-06T06:08:00.397Z,59.33
2023-02-06T06:10:26.932Z,58.18
2023-02-06T06:12:57.081Z,59.05
2023-02-06T06:15:23.680Z,60.39
2023-02-06T06:17:55.738Z,58.98
2023-02-06T06:20:22.611Z,57.96
2023-02-06T06:22:51.805Z,57.01
2023-02-06T06:25:18.517Z,60.11
2023-02-06T06:27:45.186Z,62.27
2023-02-06T06:30:14.921Z,62.44
2023-02-06T06:32:41.493Z,62.87
2023-02-06T06:35:08.306Z,61.90
2023-02-06T06:37:34.906Z,62.19
2023-02-06T06:40:01.577Z,60.53
2023-02-06T06:42:28.568Z,65.94
2023-02-06T06:44:57.409Z,69.88
2023-02-06T06:47:24.336Z,68.19
2023-02-06T06:49:50.910Z,60.93
2023-02-06T06:52:25.427Z,60.60
2023-02-06T06:54:54.922Z,61.40
2023-02-06T06:57:25.206Z,61.86
2023-02-06T06:59:56.529Z,61.72
2023-02-06T07:02:23.091Z,61.25
2023-02-06T07:04:52.745Z,65.61
2023-02-06T07:07:19.207Z,61.50
2023-02-06T07:09:50.278Z,59.58
2023-02-06T07:12:16.970Z,58.64
2023-02-06T07:14:43.686Z,57.86
2023-02-06T07:17:10.283Z,56.45
2023-02-06T07:19:36.886Z,55.90
2023-02-06T07:22:03.534Z,56.09
2023-02-06T07:24:32.130Z,56.80
2023-02-06T07:26:58.742Z,56.23
2023-02-06T07:29:27.837Z,55.38
2023-02-06T07:31:57.102Z,55.82
2023-02-06T07:34:23.782Z,55.49
2023-02-06T07:36:50.515Z,55.86
2023-02-06T07:39:17.279Z,54.97
2023-02-06T07:41:46.232Z,53.81
2023-02-06T07:44:12.996Z,55.77
2023-02-06T07:46:43.490Z,53.87
2023-02-06T07:49:13.026Z,53.04
2023-02-06T07:51:43.082Z,53.67
2023-02-06T07:54:12.736Z,53.40
2023-02-06T07:56:39.200Z,54.82
2023-02-06T07:59:08.479Z,53.85
2023-02-06T08:01:37.263Z,54.54
2023-02-06T08:04:04.059Z,53.67
2023-02-06T08:06:33.132Z,53.59
2023-02-06T08:09:01.985Z,53.63
2023-02-06T08:15:17.170Z,53.06
2023-02-06T08:17:57.519Z,53.70
2023-02-06T08:20:29.295Z,53.71
2023-02-06T08:22:56.812Z,53.09
2023-02-06T08:29:06.101Z,52.38
2023-02-06T08:31:42.430Z,57.85
2023-02-06T08:34:12.406Z,51.57
2023-02-06T08:36:39.232Z,49.98
2023-02-06T08:39:08.367Z,50.87
2023-02-06T08:41:37.378Z,50.56
2023-02-06T08:44:11.750Z,50.09
2023-02-06T08:46:44.046Z,51.18
2023-02-06T08:49:17.296Z,50.49
2023-02-06T08:51:44.353Z,51.47
2023-02-06T08:54:17.186Z,50.84
2023-02-06T08:56:46.613Z,51.21
2023-02-06T08:59:15.536Z,50.37
2023-02-06T09:02:06.551Z,50.02
2023-02-06T09:04:37.771Z,50.25
2023-02-06T09:07:04.601Z,49.66
2023-02-06T09:09:49.802Z,51.23
2023-02-06T09:12:16.540Z,51.32
2023-02-06T09:21:24.935Z,50.24
2023-02-06T09:23:56.314Z,48.26
2023-02-06T09:26:27.633Z,49.47
2023-02-06T09:29:01.002Z,49.90
2023-02-06T09:31:33.196Z,49.27
2023-02-06T09:34:02.509Z,47.13
2023-02-06T09:36:30.383Z,47.79
2023-02-06T09:38:59.599Z,47.47
2023-02-06T09:41:45.472Z,47.00
2023-02-06T09:44:35.780Z,47.01
2023-02-06T09:47:05.115Z,47.39
2023-02-06T09:49:40.811Z,47.02
2023-02-06T09:52:14.542Z,45.50
2023-02-06T09:55:01.383Z,47.41
2023-02-06T09:57:41.099Z,46.23
2023-02-06T10:00:19.566Z,45.11
2023-02-06T10:03:36.944Z,44.15
2023-02-06T10:06:19.322Z,45.20
2023-02-06T10:09:00.985Z,46.11
2023-02-06T10:12:05.112Z,45.93
2023-02-06T10:15:08.822Z,43.26
2023-02-06T10:24:44.299Z,44.05
2023-02-06T10:27:16.034Z,45.07
2023-02-06T10:29:46.768Z,45.24
2023-02-06T10:32:23.446Z,44.02
2023-02-06T10:35:14.765Z,44.23
2023-02-06T10:37:53.310Z,44.93
2023-02-06T10:40:48.693Z,44.09
2023-02-06T10:46:29.222Z,43.40
2023-02-06T10:49:00.188Z,43.09
2023-02-06T10:51:42.509Z,44.65
2023-02-06T10:54:18.618Z,43.81
2023-02-06T10:56:49.867Z,44.29
2023-02-06T10:59:31.596Z,44.71
2023-02-06T11:02:09.748Z,45.21
2023-02-06T11:04:44.906Z,44.32
2023-02-06T11:07:34.410Z,43.10
2023-02-06T11:10:01.164Z,43.83
2023-02-06T11:12:46.292Z,43.57
2023-02-06T11:15:18.991Z,42.96
2023-02-06T11:17:45.712Z,43.76
2023-02-06T11:20:22.057Z,43.70
2023-02-06T11:22:53.097Z,43.35
2023-02-06T11:25:34.732Z,43.33
2023-02-06T11:28:01.748Z,43.37
2023-02-06T11:30:34.821Z,43.68
2023-02-06T11:33:10.464Z,43.17
2023-02-06T11:35:49.577Z,44.08
2023-02-06T11:38:24.447Z,43.24
2023-02-06T11:41:07.164Z,43.77
2023-02-06T11:43:47.671Z,43.22
2023-02-06T11:46:27.151Z,44.80
2023-02-06T11:48:59.570Z,43.58
2023-02-06T11:51:44.873Z,43.88
2023-02-06T11:54:25.094Z,43.47
2023-02-06T11:57:19.841Z,43.50
2023-02-06T11:59:52.988Z,42.95
2023-02-06T12:02:27.846Z,43.40
2023-02-06T12:05:25.452Z,43.94
2023-02-06T12:08:18.056Z,44.27
2023-02-06T12:11:11.039Z,44.04
2023-02-06T12:13:46.913Z,43.35
2023-02-06T12:16:16.811Z,42.85
2023-02-06T12:18:48.334Z,43.35
2023-02-06T12:21:44.989Z,44.01
2023-02-06T12:24:38.933Z,42.59
2023-02-06T12:27:42.249Z,42.25
2023-02-06T12:30:34.148Z,41.75
2023-02-06T12:33:08.910Z,42.17
2023-02-06T12:36:01.062Z,51.95
2023-02-06T12:38:39.927Z,43.35
2023-02-06T12:41:42.922Z,42.34
2023-02-06T12:44:15.606Z,41.58
2023-02-06T12:46:51.035Z,41.82
2023-02-06T12:49:28.720Z,42.92
2023-02-06T12:52:35.129Z,42.96
2023-02-06T12:55:10.430Z,44.19
2023-02-06T12:57:38.719Z,45.27
2023-02-06T13:00:23.309Z,46.30
2023-02-06T13:03:11.073Z,42.87
2023-02-06T13:05:49.731Z,43.84
2023-02-06T13:08:22.702Z,43.14
2023-02-06T13:11:01.994Z,42.53
2023-02-06T13:13:42.200Z,44.13
2023-02-06T13:16:13.754Z,43.57
2023-02-06T13:18:44.707Z,43.00
2023-02-06T13:21:22.708Z,44.12
2023-02-06T13:24:13.500Z,44.69
2023-02-06T13:26:51.805Z,44.83
2023-02-06T13:29:25.869Z,44.87
2023-02-06T13:32:11.013Z,44.96
2023-02-06T13:34:42.057Z,45.40
2023-02-06T13:37:41.163Z,44.22
2023-02-06T13:40:35.315Z,44.99
2023-02-06T13:43:03.937Z,44.00
2023-02-06T13:45:57.662Z,45.11
2023-02-06T13:48:46.828Z,44.75
2023-02-06T13:51:22.787Z,46.32
2023-02-06T13:54:14.711Z,45.96
2023-02-06T13:57:16.954Z,45.39
2023-02-06T13:59:52.638Z,46.46
2023-02-06T14:02:37.004Z,45.85
2023-02-06T14:05:10.890Z,47.14
2023-02-06T14:07:59.284Z,47.22
2023-02-06T14:10:38.675Z,46.42
2023-02-06T14:13:56.583Z,46.61
2023-02-06T14:16:49.748Z,47.31
2023-02-06T14:19:37.283Z,48.13
2023-02-06T14:22:32.158Z,47.00
2023-02-06T14:25:20.301Z,47.50
2023-02-06T14:28:27.357Z,47.48
2023-02-06T14:31:29.593Z,48.22
2023-02-06T14:34:32.618Z,48.10
2023-02-06T14:37:17.543Z,47.65
2023-02-06T14:39:51.269Z,48.59
2023-02-06T14:42:32.646Z,47.26
2023-02-06T14:45:20.707Z,48.50
2023-02-06T14:47:47.535Z,48.61
2023-02-06T14:50:29.751Z,48.39
2023-02-06T14:53:18.834Z,47.91
2023-02-06T14:55:47.921Z,60.51
2023-02-06T14:58:32.580Z,49.14
2023-02-06T15:01:17.188Z,48.45
2023-02-06T15:03:45.466Z,49.47
2023-02-06T15:06:15.234Z,48.17
2023-02-06T15:08:51.897Z,48.20
2023-02-06T15:11:24.122Z,48.53
2023-02-06T15:13:56.430Z,48.93
2023-02-06T15:16:23.230Z,48.74
2023-02-06T15:18:49.927Z,48.74
2023-02-06T15:21:22.099Z,49.24
2023-02-06T15:24:04.324Z,49.01
2023-02-06T15:26:36.245Z,49.73
2023-02-06T15:29:18.462Z,49.46
2023-02-06T15:31:50.079Z,49.74
2023-02-06T15:34:19.782Z,49.48
2023-02-06T15:36:46.376Z,49.58
2023-02-06T15:39:17.393Z,48.79
2023-02-06T15:41:54.101Z,50.07
2023-02-06T15:44:29.427Z,49.73
2023-02-06T15:47:01.222Z,50.15
2023-02-06T15:49:45.941Z,49.67
2023-02-06T15:52:15.345Z,49.73
2023-02-06T15:54:44.997Z,49.95
2023-02-06T15:57:19.856Z,50.06
2023-02-06T15:59:46.716Z,51.20
2023-02-06T16:02:30.682Z,50.29
2023-02-06T16:04:57.619Z,50.40
2023-02-06T16:07:47.286Z,50.73
2023-02-06T16:10:22.905Z,50.44
2023-02-06T16:12:52.670Z,50.57
2023-02-06T16:15:35.024Z,49.54
2023-02-06T16:18:19.327Z,51.39
2023-02-06T16:20:46.755Z,49.72
2023-02-06T16:23:19.620Z,50.38
2023-02-06T16:25:48.094Z,50.29
2023-02-06T16:28:27.612Z,51.29
2023-02-06T16:30:54.292Z,51.30
2023-02-06T16:33:44.163Z,52.26
2023-02-06T16:36:15.542Z,52.98
2023-02-06T16:38:48.287Z,52.47
2023-02-06T16:41:33.539Z,53.70
2023-02-06T16:44:06.129Z,52.97
2023-02-06T16:46:36.159Z,54.26
2023-02-06T16:49:03.057Z,53.68
2023-02-06T16:51:32.113Z,53.88
2023-02-06T16:54:01.482Z,54.95
2023-02-06T16:56:33.893Z,54.79
2023-02-06T16:59:00.474Z,54.85
2023-02-06T17:01:29.630Z,53.45
2023-02-06T17:03:56.315Z,55.03
2023-02-06T17:06:30.120Z,53.89
2023-02-06T17:09:06.067Z,54.59
2023-02-06T17:11:35.437Z,54.79
2023-02-06T17:14:02.464Z,54.95
2023-02-06T17:16:32.079Z,55.52
2023-02-06T17:19:06.094Z,55.73
2023-02-06T17:21:35.233Z,56.14
2023-02-06T17:24:06.563Z,56.90
2023-02-06T17:26:34.413Z,55.96
2023-02-06T17:29:03.529Z,56.02
2023-02-06T17:31:32.605Z,55.29
2023-02-06T17:34:01.550Z,55.69
2023-02-06T17:36:32.697Z,56.16
2023-02-06T17:39:02.200Z,55.66
2023-02-06T17:41:30.759Z,56.26
2023-02-06T17:43:59.584Z,55.10
2023-02-06T17:46:26.213Z,55.42
2023-02-06T17:48:55.345Z,56.89
2023-02-06T17:51:24.277Z,56.77
2023-02-06T17:53:53.076Z,56.62
2023-02-06T17:56:20.952Z,56.99
2023-02-06T17:58:50.095Z,57.34
2023-02-06T18:01:22.398Z,57.10
2023-02-06T18:03:51.920Z,56.76
2023-02-06T18:06:21.515Z,56.76
2023-02-06T18:08:50.316Z,56.74
2023-02-06T18:11:19.849Z,58.12
2023-02-06T18:13:47.594Z,57.17
2023-02-06T18:16:26.292Z,57.40
2023-02-06T18:18:53.892Z,57.98
2023-02-06T18:21:21.735Z,57.55
2023-02-06T18:23:48.959Z,58.44
2023-02-06T18:26:16.298Z,57.77
2023-02-06T18:28:45.442Z,58.01
2023-02-06T18:31:33.361Z,57.22
2023-02-06T18:34:07.824Z,57.41
2023-02-06T18:36:38.066Z,57.09
2023-02-06T18:39:06.334Z,58.86
2023-02-06T18:41:51.248Z,58.09
2023-02-06T18:44:20.170Z,58.31
2023-02-06T18:46:46.848Z,57.12
2023-02-06T18:49:15.920Z,57.26
2023-02-06T18:51:42.644Z,57.72
2023-02-06T18:54:10.119Z,56.84
2023-02-06T18:56:39.596Z,57.62
2023-02-06T18:59:10.003Z,57.95
2023-02-06T19:01:39.208Z,57.49
2023-02-06T19:04:09.757Z,58.46
2023-02-06T19:06:42.014Z,57.67
2023-02-06T19:09:13.365Z,58.67
2023-02-06T19:11:42.316Z,58.08
2023-02-06T19:14:15.880Z,56.90
2023-02-06T19:16:52.186Z,57.10
2023-02-06T19:19:24.260Z,57.08
2023-02-06T19:21:51.334Z,57.11
2023-02-06T19:24:26.627Z,56.79
2023-02-06T19:26:56.559Z,56.26
2023-02-06T19:29:35.240Z,57.00
2023-02-06T19:32:07.940Z,56.93
2023-02-06T19:34:37.392Z,56.18
2023-02-06T19:37:10.973Z,57.91
2023-02-06T19:39:41.544Z,57.45
2023-02-06T19:42:15.565Z,57.78
2023-02-06T19:44:50.944Z,58.98
2023-02-06T19:47:17.854Z,58.86
2023-02-06T19:49:49.460Z,59.18
2023-02-06T19:52:18.331Z,60.16
2023-02-06T19:54:45.028Z,60.51
2023-02-06T19:57:15.089Z,60.57
2023-02-06T19:59:42.236Z,60.34
2023-02-06T20:02:14.529Z,59.96
2023-02-06T20:04:41.728Z,60.41
2023-02-06T20:07:13.109Z,60.26
2023-02-06T20:09:45.008Z,60.77
2023-02-06T20:12:12.838Z,61.46
2023-02-06T20:14:39.728Z,62.44
2023-02-06T20:17:08.914Z,62.30
2023-02-06T20:19:38.243Z,61.87
2023-02-06T20:22:07.735Z,63.26
2023-02-06T20:24:34.878Z,63.14
2023-02-06T20:27:05.873Z,63.00
2023-02-06T20:29:42.674Z,62.12
2023-02-06T20:32:12.185Z,62.59
2023-02-06T20:34:39.267Z,61.43
2023-02-06T20:37:08.294Z,62.06
2023-02-06T20:39:35.210Z,60.80
2023-02-06T20:42:26.132Z,62.03
2023-02-06T20:44:55.351Z,62.53
2023-02-06T20:47:24.705Z,63.27
2023-02-06T20:49:53.938Z,64.12
2023-02-06T20:52:21.688Z,63.75
2023-02-06T20:54:48.539Z,62.61
2023-02-06T20:57:15.602Z,62.54
2023-02-06T20:59:44.914Z,63.28
2023-02-06T21:02:13.890Z,62.19
2023-02-06T21:04:40.731Z,64.26
2023-02-06T21:07:07.907Z,63.24
2023-02-06T21:09:37.372Z,62.71
2023-02-06T21:12:08.700Z,63.13
2023-02-06T21:14:35.416Z,64.96
2023-02-06T21:17:02.235Z,66.07
2023-02-06T21:19:29.335Z,65.49
2023-02-06T21:21:58.404Z,65.09
2023-02-06T21:24:27.685Z,65.23
2023-02-06T21:26:56.894Z,64.69
2023-02-06T21:29:26.602Z,64.80
2023-02-06T21:32:12.271Z,64.84
2023-02-06T21:34:45.423Z,63.88
2023-02-06T21:37:12.836Z,64.11
2023-02-06T21:39:41.914Z,63.25
2023-02-06T21:42:10.286Z,62.06
2023-02-06T21:44:39.938Z,61.67
2023-02-06T21:47:09.461Z,61.61
2023-02-06T21:49:43.584Z,61.58
2023-02-06T21:52:13.149Z,62.87
2023-02-06T21:54:42.141Z,63.22
2023-02-06T21:57:11.354Z,64.68
2023-02-06T21:59:38.597Z,65.00
2023-02-06T22:02:08.119Z,65.58
2023-02-06T22:04:37.013Z,65.20
2023-02-06T22:07:03.839Z,65.67
2023-02-06T22:09:30.659Z,65.01
2023-02-06T22:11:59.912Z,65.15
2023-02-06T22:14:32.447Z,63.66
2023-02-06T22:17:05.262Z,64.35
2023-02-06T22:19:37.147Z,63.27
2023-02-06T22:22:04.012Z,63.94
2023-02-06T22:24:30.758Z,62.38
2023-02-06T22:27:00.860Z,62.08
2023-02-06T22:29:30.356Z,62.92
2023-02-06T22:32:04.413Z,62.67
2023-02-06T22:34:32.092Z,63.31
2023-02-06T22:36:59.371Z,63.55
2023-02-06T22:39:26.878Z,64.51
2023-02-06T22:41:55.972Z,64.44
2023-02-06T22:44:25.185Z,67.10
2023-02-06T22:46:53.097Z,66.17
2023-02-06T22:49:30.179Z,65.94
2023-02-06T22:51:58.758Z,65.95
2023-02-06T22:54:25.537Z,65.88
2023-02-06T22:56:52.224Z,67.32
2023-02-06T22:59:26.284Z,67.03
2023-02-06T23:01:58.666Z,66.36
2023-02-06T23:04:31.079Z,66.09
2023-02-06T23:07:01.130Z,67.20
2023-02-06T23:09:36.653Z,66.58
2023-02-06T23:12:06.986Z,66.71
2023-02-06T23:14:36.161Z,66.37
2023-02-06T23:17:05.416Z,65.90
2023-02-06T23:19:32.263Z,66.40
2023-02-06T23:22:01.806Z,67.05
2023-02-06T23:24:31.868Z,68.22
2023-02-06T23:26:58.636Z,67.03
2023-02-06T23:29:28.069Z,67.92
2023-02-06T23:31:55.767Z,67.17
2023-02-06T23:34:24.565Z,67.38
2023-02-06T23:36:54.206Z,67.86
2023-02-06T23:39:23.274Z,68.07
2023-02-06T23:41:50.012Z,67.99
2023-02-06T23:44:19.515Z,68.34
2023-02-06T23:46:54.079Z,68.49
2023-02-06T23:49:23.304Z,69.65
2023-02-06T23:51:50.004Z,68.55
2023-02-06T23:54:16.920Z,67.74
2023-02-06T23:56:48.424Z,67.86
2023-02-06T23:59:17.722Z,67.72
